createdAt,value
2019-02-17T00:02:56.926Z,6.70
2019-02-17T00:08:04.057Z,6.70
2019-02-17T00:13:11.347Z,6.80
2019-02-17T00:18:18.473Z,6.70
2019-02-17T00:23:25.600Z,6.60
2019-02-17T00:28:32.677Z,6.60
2019-02-17T00:33:40.073Z,6.70
2019-02-17T00:38:47.167Z,6.80
2019-02-17T00:43:54.281Z,7.00
2019-02-17T00:49:01.493Z,7.10
2019-02-17T00:54:08.690Z,7.00
2019-02-17T00:59:16.639Z,7.00
2019-02-17T01:04:23.867Z,6.90
2019-02-17T01:09:31.274Z,6.80
2019-02-17T01:14:39.040Z,6.80
2019-02-17T01:19:46.238Z,6.80
2019-02-17T01:24:53.470Z,6.80
2019-02-17T01:30:00.853Z,6.80
2019-02-17T01:35:10.029Z,6.70
2019-02-17T01:40:22.372Z,6.70
2019-02-17T01:45:29.932Z,6.80
2019-02-17T01:50:37.115Z,6.80
2019-02-17T01:55:47.019Z,6.70
2019-02-17T02:00:56.594Z,6.70
2019-02-17T02:06:03.712Z,6.60
2019-02-17T02:11:11.056Z,6.70
2019-02-17T02:16:18.172Z,6.80
2019-02-17T02:21:25.611Z,6.80
2019-02-17T02:26:32.980Z,6.80
2019-02-17T02:31:40.360Z,6.90
2019-02-17T02:36:47.532Z,7.00
2019-02-17T02:41:54.635Z,7.10
2019-02-17T02:47:01.717Z,7.20
2019-02-17T02:52:09.843Z,7.30
2019-02-17T02:57:17.040Z,7.40
2019-02-17T03:02:24.354Z,7.30
2019-02-17T03:07:31.550Z,7.40
2019-02-17T03:12:38.727Z,7.50
2019-02-17T03:17:46.245Z,7.50
2019-02-17T03:22:54.993Z,7.50
2019-02-17T03:28:02.120Z,7.50
2019-02-17T03:33:09.302Z,7.50
2019-02-17T03:38:16.507Z,7.50
2019-02-17T03:43:25.291Z,7.50
2019-02-17T03:48:32.677Z,7.50
2019-02-17T03:53:39.775Z,7.50
2019-02-17T03:58:46.899Z,7.50
2019-02-17T04:03:54.073Z,7.50
2019-02-17T04:09:01.744Z,7.40
2019-02-17T04:14:10.470Z,7.30
2019-02-17T04:19:17.673Z,7.30
2019-02-17T04:24:25.229Z,7.20
2019-02-17T04:29:32.345Z,7.30
2019-02-17T04:34:39.892Z,7.20
2019-02-17T04:39:47.102Z,7.20
2019-02-17T04:44:54.277Z,7.10
2019-02-17T04:50:01.647Z,7.20
2019-02-17T04:55:08.990Z,7.10
2019-02-17T05:00:17.295Z,7.00
2019-02-17T05:05:24.375Z,6.80
2019-02-17T05:10:31.598Z,6.70
2019-02-17T05:15:39.448Z,6.70
2019-02-17T05:20:46.524Z,6.60
2019-02-17T05:25:53.725Z,6.50
2019-02-17T05:31:00.953Z,6.40
2019-02-17T05:36:08.184Z,6.20
2019-02-17T05:41:15.307Z,6.20
2019-02-17T05:46:22.439Z,6.20
2019-02-17T05:51:29.553Z,6.20
2019-02-17T05:56:36.660Z,6.10
2019-02-17T06:01:43.874Z,6.00
2019-02-17T06:06:51.060Z,5.90
2019-02-17T06:11:58.372Z,5.80
2019-02-17T06:17:06.213Z,5.70
2019-02-17T06:22:13.333Z,5.70
2019-02-17T06:27:20.483Z,5.60
2019-02-17T06:32:27.693Z,5.60
2019-02-17T06:37:35.888Z,5.70
2019-02-17T06:42:44.566Z,5.80
2019-02-17T06:47:52.745Z,5.90
2019-02-17T06:53:00.834Z,5.90
2019-02-17T06:58:08.010Z,6.00
2019-02-17T07:03:15.176Z,6.10
2019-02-17T07:08:23.140Z,6.20
2019-02-17T07:13:30.248Z,6.30
2019-02-17T07:18:38.384Z,6.30
2019-02-17T07:23:45.510Z,6.40
2019-02-17T07:28:52.636Z,6.50
2019-02-17T07:34:00.266Z,6.60
2019-02-17T07:39:07.948Z,6.70
2019-02-17T07:44:15.064Z,6.80
2019-02-17T07:49:22.282Z,6.90
2019-02-17T07:54:29.348Z,7.00
2019-02-17T07:59:36.450Z,7.10
2019-02-17T08:04:43.637Z,7.20
2019-02-17T08:09:50.756Z,7.30
2019-02-17T08:14:58.136Z,7.50
2019-02-17T08:20:07.449Z,7.60
2019-02-17T08:25:21.503Z,7.80
2019-02-17T08:30:23.717Z,7.90
2019-02-17T08:35:30.895Z,8.10
2019-02-17T08:40:37.988Z,8.10
2019-02-17T08:45:45.421Z,8.30
2019-02-17T08:50:52.513Z,8.40
2019-02-17T08:55:59.639Z,8.60
2019-02-17T09:01:06.834Z,8.60
2019-02-17T09:06:14.822Z,8.70
2019-02-17T09:11:23.017Z,8.70
2019-02-17T09:16:30.133Z,8.60
2019-02-17T09:21:37.259Z,8.60
2019-02-17T09:26:44.365Z,8.70
2019-02-17T09:31:51.420Z,8.80
2019-02-17T09:36:58.529Z,8.80
2019-02-17T09:42:05.879Z,8.80
2019-02-17T09:47:13.350Z,8.90
2019-02-17T09:52:20.568Z,8.90
2019-02-17T09:57:27.680Z,8.90
2019-02-17T10:02:34.953Z,9.00
2019-02-17T10:07:42.048Z,9.10
2019-02-17T10:12:49.118Z,9.10
2019-02-17T10:17:56.240Z,9.20
2019-02-17T10:23:03.351Z,9.10
2019-02-17T10:28:10.527Z,9.20
2019-02-17T10:33:17.725Z,9.20
2019-02-17T10:38:24.928Z,9.20
2019-02-17T10:43:32.261Z,9.10
2019-02-17T10:48:40.375Z,9.10
2019-02-17T10:53:47.497Z,9.20
2019-02-17T10:58:54.643Z,9.20
2019-02-17T11:04:07.457Z,9.30
2019-02-17T11:09:21.687Z,9.30
2019-02-17T11:14:28.784Z,9.30
2019-02-17T11:19:35.876Z,9.30
2019-02-17T11:24:42.967Z,9.20
2019-02-17T11:29:50.065Z,9.30
2019-02-17T11:34:57.164Z,9.30
2019-02-17T11:40:04.529Z,9.40
2019-02-17T11:45:14.085Z,9.50
2019-02-17T11:50:21.189Z,9.50
2019-02-17T11:55:28.284Z,9.60
2019-02-17T12:00:35.422Z,9.60
2019-02-17T12:05:42.993Z,9.80
2019-02-17T12:10:50.097Z,9.90
2019-02-17T12:15:57.225Z,10.00
2019-02-17T12:21:23.126Z,10.10
2019-02-17T12:26:44.784Z,10.20
2019-02-17T12:31:51.890Z,10.20
2019-02-17T12:36:59.184Z,10.10
2019-02-17T12:42:06.202Z,10.00
2019-02-17T12:47:13.387Z,9.90
2019-02-17T12:52:21.542Z,9.80
2019-02-17T12:57:28.728Z,9.80
2019-02-17T13:02:36.267Z,9.70
2019-02-17T13:07:43.337Z,9.60
2019-02-17T13:12:50.462Z,9.50
2019-02-17T13:17:57.668Z,9.50
2019-02-17T13:23:05.781Z,9.40
2019-02-17T13:28:13.232Z,9.30
2019-02-17T13:33:20.313Z,9.30
2019-02-17T13:38:27.467Z,9.20
2019-02-17T13:43:34.527Z,9.30
2019-02-17T13:48:41.607Z,9.20
2019-02-17T13:53:48.718Z,9.20
2019-02-17T13:58:55.885Z,9.10
2019-02-17T14:04:02.991Z,9.00
2019-02-17T14:09:10.181Z,8.90
2019-02-17T14:14:17.717Z,9.00
2019-02-17T14:19:24.889Z,9.00
2019-02-17T14:24:32.996Z,9.00
2019-02-17T14:29:40.098Z,8.90
2019-02-17T14:34:47.213Z,8.90
2019-02-17T14:39:54.585Z,8.90
2019-02-17T14:45:01.684Z,8.80
2019-02-17T14:50:09.017Z,8.80
2019-02-17T14:55:16.105Z,8.80
2019-02-17T15:00:24.288Z,8.70
2019-02-17T15:05:31.383Z,8.70
2019-02-17T15:10:38.844Z,8.70
2019-02-17T15:15:46.030Z,8.60
2019-02-17T15:20:53.985Z,8.60
2019-02-17T15:26:01.188Z,8.60
2019-02-17T15:31:08.915Z,8.60
2019-02-17T15:36:16.027Z,8.60
2019-02-17T15:41:23.223Z,8.60
2019-02-17T15:46:30.744Z,8.60
2019-02-17T15:51:39.089Z,8.50
2019-02-17T15:56:46.221Z,8.50
2019-02-17T16:01:53.331Z,8.40
2019-02-17T16:07:00.520Z,8.40
2019-02-17T16:12:08.598Z,8.40
2019-02-17T16:17:15.737Z,8.30
2019-02-17T16:22:22.951Z,8.20
2019-02-17T16:27:30.138Z,8.10
2019-02-17T16:32:37.205Z,8.00
2019-02-17T16:37:45.274Z,7.80
2019-02-17T16:42:52.571Z,7.60
2019-02-17T16:47:59.681Z,7.50
2019-02-17T16:53:06.785Z,7.50
2019-02-17T16:58:13.909Z,7.50
2019-02-17T17:03:21.003Z,7.50
2019-02-17T17:08:28.196Z,7.50
2019-02-17T17:13:35.529Z,7.50
2019-02-17T17:18:42.654Z,7.50
2019-02-17T17:23:49.759Z,7.50
2019-02-17T17:28:56.865Z,7.50
2019-02-17T17:34:04.055Z,7.40
2019-02-17T17:39:11.213Z,7.30
2019-02-17T17:44:18.476Z,7.30
2019-02-17T17:49:25.583Z,7.30
2019-02-17T17:54:32.912Z,7.40
2019-02-17T17:59:40.117Z,7.40
2019-02-17T18:04:47.208Z,7.40
2019-02-17T18:09:54.312Z,7.40
2019-02-17T18:15:01.536Z,7.30
2019-02-17T18:20:11.430Z,7.20
2019-02-17T18:25:18.488Z,7.30
2019-02-17T18:30:25.559Z,7.30
2019-02-17T18:35:35.270Z,7.30
2019-02-17T18:40:46.164Z,7.30
2019-02-17T18:45:51.579Z,7.30
2019-02-17T18:50:59.408Z,7.30
2019-02-17T18:56:06.703Z,7.20
2019-02-17T19:01:13.867Z,7.30
2019-02-17T19:06:20.984Z,7.30
2019-02-17T19:11:28.099Z,7.40
2019-02-17T19:16:35.261Z,7.40
2019-02-17T19:21:42.344Z,7.30
2019-02-17T19:26:49.800Z,7.40
2019-02-17T19:31:56.910Z,7.30
2019-02-17T19:37:03.979Z,7.20
2019-02-17T19:42:11.323Z,7.20
2019-02-17T19:47:18.439Z,7.10
2019-02-17T19:52:25.480Z,6.90
2019-02-17T19:57:32.610Z,6.90
2019-02-17T20:03:07.612Z,6.80
2019-02-17T20:08:14.690Z,6.60
2019-02-17T20:13:22.402Z,6.50
2019-02-17T20:18:29.523Z,6.50
2019-02-17T20:23:36.736Z,6.40
2019-02-17T20:28:43.962Z,6.40
2019-02-17T20:33:51.176Z,6.40
2019-02-17T20:38:58.263Z,6.40
2019-02-17T20:44:06.077Z,6.40
2019-02-17T20:49:13.188Z,6.40
2019-02-17T20:54:20.477Z,6.40
2019-02-17T20:59:27.745Z,6.40
2019-02-17T21:09:52.306Z,6.40
2019-02-17T21:15:00.046Z,6.40
2019-02-17T21:20:07.777Z,6.30
2019-02-17T21:25:15.010Z,6.20
2019-02-17T21:30:23.481Z,6.20
2019-02-17T21:35:30.679Z,6.20
2019-02-17T21:40:38.290Z,6.20
2019-02-17T21:45:45.619Z,6.20
2019-02-17T21:50:52.814Z,6.20
2019-02-17T21:56:00.010Z,6.10
2019-02-17T22:01:07.657Z,6.10
2019-02-17T22:06:14.750Z,6.10
2019-02-17T22:11:21.837Z,6.10
2019-02-17T22:16:29.039Z,6.10
2019-02-17T22:21:36.337Z,6.00
2019-02-17T22:26:43.434Z,5.90
2019-02-17T22:31:50.660Z,5.90
2019-02-17T22:36:57.739Z,5.90
2019-02-17T22:42:06.644Z,5.90
2019-02-17T22:47:14.412Z,5.80
2019-02-17T22:52:21.492Z,5.80
2019-02-17T22:57:28.612Z,5.70
2019-02-17T23:02:36.322Z,5.70
2019-02-17T23:07:43.397Z,5.60
2019-02-17T23:18:06.592Z,5.60
2019-02-17T23:23:13.671Z,5.60
2019-02-17T23:28:20.726Z,5.60
2019-02-17T23:33:29.410Z,5.60
2019-02-17T23:38:36.541Z,5.60
2019-02-17T23:43:43.846Z,5.50
2019-02-17T23:48:50.942Z,5.50
2019-02-17T23:53:58.031Z,5.50
2019-02-17T23:59:06.224Z,5.50
